createdAt,value
2023-05-17T00:00:47.327Z,28.20
2023-05-17T00:03:16.740Z,28.30
2023-05-17T00:05:46.331Z,28.30
2023-05-17T00:08:15.697Z,28.40
2023-05-17T00:10:44.999Z,28.50
2023-05-17T00:13:14.345Z,28.50
2023-05-17T00:15:43.740Z,28.50
2023-05-17T00:18:14.950Z,28.60
2023-05-17T00:20:44.457Z,28.60
2023-05-17T00:23:13.792Z,28.70
2023-05-17T00:25:43.294Z,28.70
2023-05-17T00:28:12.714Z,28.80
2023-05-17T00:30:42.109Z,28.80
2023-05-17T00:33:11.607Z,28.90
2023-05-17T00:35:41.945Z,28.90
2023-05-17T00:38:11.599Z,29.00
2023-05-17T00:40:40.978Z,29.10
2023-05-17T00:43:10.425Z,29.20
2023-05-17T00:45:39.824Z,29.20
2023-05-17T00:48:09.299Z,29.20
2023-05-17T00:50:39.100Z,29.30
2023-05-17T00:53:09.068Z,29.30
2023-05-17T00:55:38.685Z,29.40
2023-05-17T00:58:08.022Z,29.40
2023-05-17T01:00:37.600Z,29.50
2023-05-17T01:03:07.407Z,29.50
2023-05-17T01:05:37.421Z,29.60
2023-05-17T01:08:06.992Z,29.60
2023-05-17T01:11:06.512Z,29.70
2023-05-17T01:14:03.804Z,29.80
2023-05-17T01:16:53.419Z,29.80
2023-05-17T01:19:47.406Z,29.90
2023-05-17T01:22:45.547Z,29.90
2023-05-17T01:25:33.161Z,30.00
2023-05-17T01:28:06.551Z,30.00
2023-05-17T01:30:37.970Z,30.00
2023-05-17T01:33:10.987Z,30.10
2023-05-17T01:35:41.136Z,30.10
2023-05-17T01:38:10.764Z,30.10
2023-05-17T01:40:57.069Z,30.20
2023-05-17T01:44:14.070Z,30.30
2023-05-17T01:46:45.184Z,30.40
2023-05-17T01:49:26.084Z,30.40
2023-05-17T01:52:29.697Z,30.50
2023-05-17T01:55:44.191Z,30.60
2023-05-17T01:58:14.981Z,30.60
2023-05-17T02:00:48.937Z,30.70
2023-05-17T02:03:22.345Z,30.70
2023-05-17T02:05:51.960Z,30.80
2023-05-17T02:08:23.031Z,30.90
2023-05-17T02:10:52.437Z,30.90
2023-05-17T02:13:23.286Z,31.00
2023-05-17T02:15:52.945Z,31.10
2023-05-17T02:18:28.896Z,31.10
2023-05-17T02:20:58.338Z,31.20
2023-05-17T02:23:27.792Z,31.20
2023-05-17T02:25:58.356Z,31.20
2023-05-17T02:28:29.294Z,31.30
2023-05-17T02:31:00.887Z,31.40
2023-05-17T02:34:14.349Z,31.50
2023-05-17T02:36:49.607Z,31.50
2023-05-17T02:39:25.766Z,31.60
2023-05-17T02:41:58.693Z,31.70
2023-05-17T02:44:28.032Z,31.80
2023-05-17T02:47:00.256Z,31.90
2023-05-17T02:49:29.843Z,32.00
2023-05-17T02:51:59.335Z,32.00
2023-05-17T02:54:28.793Z,32.10
2023-05-17T02:57:01.428Z,32.20
2023-05-17T02:59:30.762Z,32.20
2023-05-17T03:02:00.200Z,32.20
2023-05-17T03:04:29.999Z,32.30
2023-05-17T03:06:59.349Z,32.40
2023-05-17T03:09:30.913Z,32.40
2023-05-17T03:12:00.209Z,32.40
2023-05-17T03:14:29.538Z,32.50
2023-05-17T03:16:58.729Z,32.50
2023-05-17T03:19:28.574Z,32.50
2023-05-17T03:21:57.877Z,32.50
2023-05-17T03:24:27.250Z,32.50
2023-05-17T03:26:56.497Z,32.50
2023-05-17T03:29:25.874Z,32.50
2023-05-17T03:31:55.630Z,32.60
2023-05-17T03:34:25.285Z,32.60
2023-05-17T03:36:54.430Z,32.70
2023-05-17T03:39:23.708Z,32.80
2023-05-17T03:41:53.534Z,32.90
2023-05-17T03:44:22.765Z,32.90
2023-05-17T03:46:52.237Z,32.90
2023-05-17T03:49:21.979Z,33.00
2023-05-17T03:51:51.374Z,32.90
2023-05-17T03:54:20.599Z,32.90
2023-05-17T03:56:51.278Z,33.00
2023-05-17T03:59:20.523Z,33.10
2023-05-17T04:01:49.807Z,33.20
2023-05-17T04:04:19.049Z,33.30
2023-05-17T04:06:48.656Z,33.30
2023-05-17T04:09:18.151Z,33.40
2023-05-17T04:11:47.572Z,33.50
2023-05-17T04:14:19.132Z,33.60
2023-05-17T04:16:48.746Z,33.60
2023-05-17T04:19:18.594Z,33.80
2023-05-17T04:21:48.299Z,33.80
2023-05-17T04:24:18.160Z,33.90
2023-05-17T04:26:47.413Z,34.00
2023-05-17T04:29:16.656Z,34.10
2023-05-17T04:31:48.035Z,34.10
2023-05-17T04:34:18.427Z,34.10
2023-05-17T04:36:47.677Z,34.20
2023-05-17T04:39:17.077Z,34.20
2023-05-17T04:41:46.467Z,34.20
2023-05-17T04:44:15.811Z,34.30
2023-05-17T04:46:46.903Z,34.30
2023-05-17T04:49:16.281Z,34.40
2023-05-17T04:51:45.586Z,34.50
2023-05-17T04:54:14.972Z,34.50
2023-05-17T04:56:44.481Z,34.70
2023-05-17T04:59:13.758Z,34.80
2023-05-17T05:01:43.228Z,34.90
2023-05-17T05:04:12.826Z,35.00
2023-05-17T05:06:42.630Z,35.10
2023-05-17T05:09:12.032Z,35.10
2023-05-17T05:11:41.337Z,35.20
2023-05-17T05:14:10.718Z,35.20
2023-05-17T05:16:40.043Z,35.30
2023-05-17T05:19:11.251Z,35.40
2023-05-17T05:21:40.655Z,35.40
2023-05-17T05:24:10.298Z,35.40
2023-05-17T05:26:39.655Z,35.50
2023-05-17T05:29:08.922Z,35.60
2023-05-17T05:31:38.411Z,35.70
2023-05-17T05:34:08.539Z,35.80
2023-05-17T05:36:38.127Z,35.80
2023-05-17T05:39:09.167Z,35.90
2023-05-17T05:41:38.515Z,36.00
2023-05-17T05:44:07.990Z,35.90
2023-05-17T05:46:37.334Z,36.00
2023-05-17T05:49:06.672Z,36.00
2023-05-17T05:51:36.304Z,36.00
2023-05-17T05:54:05.702Z,36.00
2023-05-17T05:56:34.947Z,36.10
2023-05-17T05:59:04.671Z,36.10
2023-05-17T06:01:35.101Z,36.20
2023-05-17T06:04:04.448Z,36.20
2023-05-17T06:06:42.267Z,36.20
2023-05-17T06:09:13.321Z,36.30
2023-05-17T06:11:42.519Z,36.30
2023-05-17T06:14:12.226Z,36.30
2023-05-17T06:16:41.470Z,36.30
2023-05-17T06:19:12.703Z,36.30
2023-05-17T06:21:42.272Z,36.40
2023-05-17T06:24:11.680Z,36.40
2023-05-17T06:26:41.993Z,36.50
2023-05-17T06:29:11.852Z,36.60
2023-05-17T06:31:41.094Z,36.70
2023-05-17T06:34:10.654Z,36.80
2023-05-17T06:36:40.729Z,36.80
2023-05-17T06:39:10.098Z,36.90
2023-05-17T06:41:39.496Z,36.90
2023-05-17T06:44:09.861Z,37.10
2023-05-17T06:46:39.103Z,37.10
2023-05-17T06:49:08.471Z,37.20
2023-05-17T06:51:37.856Z,37.20
2023-05-17T06:54:07.114Z,37.30
2023-05-17T06:56:36.617Z,37.30
2023-05-17T06:59:05.898Z,37.20
2023-05-17T07:01:35.711Z,37.20
2023-05-17T07:04:05.026Z,37.20
2023-05-17T07:06:34.325Z,37.20
2023-05-17T07:09:03.631Z,37.30
2023-05-17T07:11:33.072Z,37.30
2023-05-17T07:14:02.379Z,37.30
2023-05-17T07:16:31.735Z,37.40
2023-05-17T07:19:00.999Z,37.50
2023-05-17T07:21:30.802Z,37.50
2023-05-17T07:24:00.483Z,37.50
2023-05-17T07:26:29.709Z,37.50
2023-05-17T07:28:59.098Z,37.40
2023-05-17T07:31:28.304Z,37.40
2023-05-17T07:33:58.410Z,37.40
2023-05-17T07:36:31.556Z,37.40
2023-05-17T07:39:00.993Z,37.60
2023-05-17T07:41:30.335Z,37.60
2023-05-17T07:43:59.739Z,37.60
2023-05-17T07:46:30.780Z,37.60
2023-05-17T07:49:00.206Z,37.60
2023-05-17T07:51:29.650Z,37.60
2023-05-17T07:53:58.997Z,37.70
2023-05-17T07:56:28.481Z,37.80
2023-05-17T07:58:58.790Z,37.80
2023-05-17T08:01:28.733Z,37.90
2023-05-17T08:03:58.221Z,38.00
2023-05-17T08:06:27.601Z,38.10
2023-05-17T08:08:57.029Z,38.10
2023-05-17T08:11:26.678Z,38.10
2023-05-17T08:13:56.006Z,38.30
2023-05-17T08:16:25.303Z,38.30
2023-05-17T08:18:54.940Z,38.40
2023-05-17T08:21:24.438Z,38.60
2023-05-17T08:23:54.262Z,38.50
2023-05-17T08:26:23.578Z,38.50
2023-05-17T08:28:52.877Z,38.50
2023-05-17T08:31:22.228Z,38.50
2023-05-17T08:33:52.921Z,38.50
2023-05-17T08:36:22.627Z,38.30
2023-05-17T08:38:53.441Z,38.10
2023-05-17T08:41:23.140Z,37.90
2023-05-17T08:43:53.104Z,37.80
2023-05-17T08:46:23.531Z,37.70
2023-05-17T08:49:00.743Z,37.80
2023-05-17T08:51:30.685Z,37.80
2023-05-17T08:54:00.932Z,37.80
2023-05-17T08:56:33.250Z,37.90
2023-05-17T08:59:04.113Z,38.00
2023-05-17T09:01:34.165Z,38.10
2023-05-17T09:04:04.116Z,38.10
2023-05-17T09:06:35.626Z,38.00
2023-05-17T09:09:08.412Z,37.90
2023-05-17T09:11:37.850Z,37.80
2023-05-17T09:14:09.412Z,37.80
2023-05-17T09:16:39.797Z,37.80
2023-05-17T09:19:10.647Z,37.70
2023-05-17T09:21:40.208Z,37.70
2023-05-17T09:24:09.921Z,37.80
2023-05-17T09:26:47.649Z,37.80
2023-05-17T09:29:18.478Z,37.90
2023-05-17T09:31:47.972Z,38.00
2023-05-17T09:34:24.646Z,38.10
2023-05-17T09:36:55.565Z,38.10
2023-05-17T09:39:28.002Z,38.10
2023-05-17T09:41:59.338Z,38.20
2023-05-17T09:44:28.819Z,38.10
2023-05-17T09:47:00.989Z,38.10
2023-05-17T09:49:30.254Z,38.30
2023-05-17T09:51:59.523Z,38.30
2023-05-17T09:54:42.351Z,38.20
2023-05-17T09:57:12.052Z,38.20
2023-05-17T09:59:42.191Z,38.10
2023-05-17T10:02:22.464Z,38.00
2023-05-17T10:04:54.835Z,37.90
2023-05-17T10:07:27.113Z,37.90
2023-05-17T10:09:58.448Z,37.80
2023-05-17T10:12:34.759Z,37.80
2023-05-17T10:15:05.973Z,37.80
2023-05-17T10:17:36.752Z,37.80
2023-05-17T10:20:09.670Z,37.70
2023-05-17T10:22:41.984Z,37.70
2023-05-17T10:25:12.201Z,37.70
2023-05-17T10:27:42.866Z,37.70
2023-05-17T10:30:15.554Z,37.70
2023-05-17T10:32:47.766Z,37.60
2023-05-17T10:35:17.713Z,37.60
2023-05-17T10:37:46.958Z,37.50
2023-05-17T10:40:18.544Z,37.50
2023-05-17T10:42:55.058Z,37.40
2023-05-17T10:45:29.295Z,37.40
2023-05-17T10:48:00.921Z,37.30
2023-05-17T10:50:31.157Z,37.20
2023-05-17T10:53:01.495Z,37.10
2023-05-17T10:55:44.108Z,37.00
2023-05-17T10:58:20.819Z,36.90
2023-05-17T11:00:55.754Z,36.80
2023-05-17T11:03:30.200Z,36.80
2023-05-17T11:06:25.669Z,36.70
2023-05-17T11:09:19.882Z,36.60
2023-05-17T11:12:29.096Z,36.60
2023-05-17T11:15:00.361Z,36.50
2023-05-17T11:17:38.144Z,36.40
2023-05-17T11:20:17.594Z,36.30
2023-05-17T11:22:57.180Z,36.20
2023-05-17T11:25:30.845Z,36.20
2023-05-17T11:28:01.257Z,36.10
2023-05-17T11:30:34.957Z,36.00
2023-05-17T11:33:17.343Z,35.90
2023-05-17T11:35:58.012Z,35.90
2023-05-17T11:38:33.869Z,35.80
2023-05-17T11:41:26.960Z,35.70
2023-05-17T11:43:57.014Z,35.70
2023-05-17T11:46:27.047Z,35.60
2023-05-17T11:48:57.309Z,35.60
2023-05-17T11:51:27.504Z,35.50
2023-05-17T11:53:57.639Z,35.40
2023-05-17T11:56:41.943Z,35.30
2023-05-17T11:59:12.591Z,35.30
2023-05-17T12:01:47.597Z,35.10
2023-05-17T12:04:26.700Z,35.00
2023-05-17T12:06:58.862Z,34.90
2023-05-17T12:09:28.666Z,34.80
2023-05-17T12:11:59.107Z,34.80
2023-05-17T12:14:28.717Z,34.70
2023-05-17T12:17:03.546Z,34.60
2023-05-17T12:19:33.947Z,34.50
2023-05-17T12:22:13.694Z,34.40
2023-05-17T12:24:44.999Z,34.30
2023-05-17T12:27:14.414Z,34.20
2023-05-17T12:29:45.105Z,34.20
2023-05-17T12:32:14.710Z,34.10
2023-05-17T12:34:45.345Z,34.10
2023-05-17T12:37:20.898Z,34.00
2023-05-17T12:39:56.285Z,34.00
2023-05-17T12:42:29.648Z,34.00
2023-05-17T12:45:04.296Z,33.90
2023-05-17T12:47:37.838Z,33.90
2023-05-17T12:50:26.714Z,33.90
2023-05-17T12:52:59.314Z,33.90
2023-05-17T12:55:39.395Z,33.90
2023-05-17T12:58:11.101Z,33.90
2023-05-17T13:00:45.070Z,33.80
2023-05-17T13:03:15.290Z,33.80
2023-05-17T13:05:48.097Z,33.70
2023-05-17T13:08:29.789Z,33.70
2023-05-17T13:11:22.837Z,33.70
2023-05-17T13:13:55.321Z,33.70
2023-05-17T13:16:32.190Z,33.70
2023-05-17T13:19:07.474Z,33.70
2023-05-17T13:21:42.849Z,33.70
2023-05-17T13:24:17.453Z,33.70
2023-05-17T13:26:51.656Z,33.60
2023-05-17T13:29:35.281Z,33.60
2023-05-17T13:32:18.670Z,33.60
2023-05-17T13:34:51.359Z,33.60
2023-05-17T13:37:27.049Z,33.60
2023-05-17T13:39:58.019Z,33.50
2023-05-17T13:42:29.972Z,33.50
2023-05-17T13:45:04.050Z,33.50
2023-05-17T13:47:39.508Z,33.50
2023-05-17T13:50:11.003Z,33.50
2023-05-17T13:52:40.382Z,33.50
2023-05-17T13:55:10.334Z,33.50
2023-05-17T13:57:39.678Z,33.50
2023-05-17T14:00:10.066Z,33.50
2023-05-17T14:02:39.549Z,33.50
2023-05-17T14:05:12.368Z,33.50
2023-05-17T14:07:43.746Z,33.40
2023-05-17T14:10:14.090Z,33.40
2023-05-17T14:12:43.526Z,33.40
2023-05-17T14:15:16.335Z,33.40
2023-05-17T14:17:45.797Z,33.40
2023-05-17T14:20:15.787Z,33.30
2023-05-17T14:22:48.193Z,33.30
2023-05-17T14:25:17.783Z,33.30
2023-05-17T14:27:47.893Z,33.20
2023-05-17T14:30:17.630Z,33.20
2023-05-17T14:32:50.163Z,33.20
2023-05-17T14:35:19.767Z,33.10
2023-05-17T14:37:49.201Z,33.10
2023-05-17T14:40:23.870Z,33.00
2023-05-17T14:42:53.231Z,33.00
2023-05-17T14:45:22.618Z,33.00
2023-05-17T14:47:52.355Z,32.90
2023-05-17T14:50:22.034Z,32.90
2023-05-17T14:52:51.681Z,32.90
2023-05-17T14:55:25.238Z,32.80
2023-05-17T14:57:55.832Z,32.80
2023-05-17T15:00:25.890Z,32.70
2023-05-17T15:02:55.386Z,32.70
2023-05-17T15:05:25.367Z,32.70
2023-05-17T15:07:55.152Z,32.60
2023-05-17T15:10:24.904Z,32.60
2023-05-17T15:12:54.269Z,32.50
2023-05-17T15:15:23.688Z,32.50
2023-05-17T15:17:53.735Z,32.40
2023-05-17T15:20:23.434Z,32.40
2023-05-17T15:22:53.175Z,32.40
2023-05-17T15:25:25.776Z,32.30
2023-05-17T15:27:57.992Z,32.20
2023-05-17T15:30:28.545Z,32.20
2023-05-17T15:33:00.622Z,32.20
2023-05-17T15:35:30.273Z,32.10
2023-05-17T15:38:03.000Z,32.10
2023-05-17T15:40:34.125Z,32.10
2023-05-17T15:43:03.582Z,32.00
2023-05-17T15:45:33.525Z,32.00
2023-05-17T15:48:03.131Z,32.00
2023-05-17T15:50:32.606Z,31.90
2023-05-17T15:53:04.493Z,31.90
2023-05-17T15:55:33.748Z,31.80
2023-05-17T15:58:02.990Z,31.80
2023-05-17T16:00:32.626Z,31.70
2023-05-17T16:03:02.268Z,31.70
2023-05-17T16:05:34.854Z,31.70
2023-05-17T16:08:04.170Z,31.60
2023-05-17T16:10:33.528Z,31.60
2023-05-17T16:13:02.975Z,31.60
2023-05-17T16:15:32.409Z,31.50
2023-05-17T16:18:02.022Z,31.50
2023-05-17T16:20:31.416Z,31.50
2023-05-17T16:23:00.686Z,31.40
2023-05-17T16:25:30.255Z,31.40
2023-05-17T16:27:59.757Z,31.40
2023-05-17T16:30:29.388Z,31.30
2023-05-17T16:32:59.665Z,31.30
2023-05-17T16:35:29.870Z,31.20
2023-05-17T16:37:59.499Z,31.20
2023-05-17T16:40:29.943Z,31.20
2023-05-17T16:42:59.481Z,31.20
2023-05-17T16:45:29.027Z,31.20
2023-05-17T16:47:58.503Z,31.10
2023-05-17T16:50:28.352Z,31.10
2023-05-17T16:52:57.821Z,31.10
2023-05-17T16:55:27.345Z,31.00
2023-05-17T16:57:56.770Z,31.00
2023-05-17T17:00:26.203Z,31.00
2023-05-17T17:02:55.690Z,30.90
2023-05-17T17:05:25.122Z,30.90
2023-05-17T17:07:54.535Z,30.90
2023-05-17T17:10:23.985Z,30.80
2023-05-17T17:12:53.425Z,30.90
2023-05-17T17:15:23.954Z,30.80
2023-05-17T17:17:53.417Z,30.80
2023-05-17T17:20:22.912Z,30.70
2023-05-17T17:22:52.232Z,30.70
2023-05-17T17:25:22.002Z,30.70
2023-05-17T17:27:53.112Z,30.70
2023-05-17T17:30:22.798Z,30.70
2023-05-17T17:32:52.372Z,30.60
2023-05-17T17:35:22.304Z,30.60
2023-05-17T17:37:51.656Z,30.50
2023-05-17T17:40:21.294Z,30.50
2023-05-17T17:42:50.663Z,30.50
2023-05-17T17:45:19.988Z,30.50
2023-05-17T17:47:49.266Z,30.50
2023-05-17T17:50:18.783Z,30.50
2023-05-17T17:52:48.028Z,30.40
2023-05-17T17:55:17.443Z,30.30
2023-05-17T17:57:46.794Z,30.40
2023-05-17T18:00:17.421Z,30.30
2023-05-17T18:02:46.814Z,30.30
2023-05-17T18:05:16.137Z,30.30
2023-05-17T18:07:45.477Z,30.20
2023-05-17T18:10:14.740Z,30.20
2023-05-17T18:12:44.015Z,30.20
2023-05-17T18:15:13.688Z,30.10
2023-05-17T18:17:43.557Z,30.10
2023-05-17T18:20:13.034Z,30.10
2023-05-17T18:22:42.250Z,30.00
2023-05-17T18:25:12.187Z,30.00
2023-05-17T18:27:42.478Z,30.00
2023-05-17T18:30:12.789Z,29.90
2023-05-17T18:32:42.773Z,29.90
2023-05-17T18:35:12.731Z,29.90
2023-05-17T18:37:41.997Z,29.80
2023-05-17T18:40:12.110Z,29.80
2023-05-17T18:42:41.375Z,29.80
2023-05-17T18:45:11.699Z,29.70
2023-05-17T18:47:41.017Z,29.70
2023-05-17T18:50:11.136Z,29.70
2023-05-17T18:52:40.876Z,29.70
2023-05-17T18:55:10.636Z,29.70
2023-05-17T18:57:39.948Z,29.60
2023-05-17T19:00:10.285Z,29.60
2023-05-17T19:02:39.629Z,29.60
2023-05-17T19:05:09.622Z,29.60
2023-05-17T19:07:39.004Z,29.60
2023-05-17T19:10:09.129Z,29.60
2023-05-17T19:12:38.489Z,29.50
2023-05-17T19:15:10.466Z,29.50
2023-05-17T19:17:39.928Z,29.50
2023-05-17T19:20:10.471Z,29.50
2023-05-17T19:22:39.818Z,29.50
2023-05-17T19:25:09.812Z,29.50
2023-05-17T19:27:39.079Z,29.50
2023-05-17T19:30:09.461Z,29.40
2023-05-17T19:32:39.561Z,29.40
2023-05-17T19:35:10.058Z,29.40
2023-05-17T19:37:39.593Z,29.40
2023-05-17T19:40:09.953Z,29.30
2023-05-17T19:42:40.676Z,29.30
2023-05-17T19:45:12.802Z,29.30
2023-05-17T19:47:43.381Z,29.30
2023-05-17T19:50:13.531Z,29.30
2023-05-17T19:52:42.867Z,29.30
2023-05-17T19:55:12.797Z,29.20
2023-05-17T19:57:42.166Z,29.20
2023-05-17T20:00:12.535Z,29.20
2023-05-17T20:02:42.076Z,29.20
2023-05-17T20:05:11.748Z,29.10
2023-05-17T20:07:41.052Z,29.10
2023-05-17T20:10:11.271Z,29.10
2023-05-17T20:12:41.032Z,29.00
2023-05-17T20:15:11.512Z,29.00
2023-05-17T20:17:40.957Z,28.90
2023-05-17T20:20:10.970Z,28.90
2023-05-17T20:22:42.064Z,28.90
2023-05-17T20:25:12.498Z,28.80
2023-05-17T20:27:42.044Z,28.80
2023-05-17T20:30:12.183Z,28.80
2023-05-17T20:32:41.805Z,28.80
2023-05-17T20:35:12.002Z,28.80
2023-05-17T20:37:41.460Z,28.80
2023-05-17T20:40:11.658Z,28.80
2023-05-17T20:42:41.378Z,28.80
2023-05-17T20:45:13.209Z,28.80
2023-05-17T20:47:43.915Z,28.80
2023-05-17T20:50:15.040Z,28.80
2023-05-17T20:52:44.368Z,28.80
2023-05-17T20:55:13.724Z,28.80
2023-05-17T20:57:42.998Z,28.80
2023-05-17T21:00:13.236Z,28.80
2023-05-17T21:02:42.740Z,28.80
2023-05-17T21:05:12.277Z,28.80
2023-05-17T21:07:41.654Z,28.80
2023-05-17T21:10:11.497Z,28.80
2023-05-17T21:12:40.877Z,28.80
2023-05-17T21:15:31.077Z,28.80
2023-05-17T21:18:00.235Z,28.70
2023-05-17T21:20:29.876Z,28.70
2023-05-17T21:22:59.258Z,28.70
2023-05-17T21:25:29.055Z,28.70
2023-05-17T21:27:58.885Z,28.70
2023-05-17T21:30:28.396Z,28.70
2023-05-17T21:32:58.371Z,28.60
2023-05-17T21:35:28.886Z,28.60
2023-05-17T21:38:01.213Z,28.60
2023-05-17T21:40:30.980Z,28.60
2023-05-17T21:43:07.845Z,28.60
2023-05-17T21:45:37.250Z,28.60
2023-05-17T21:48:06.978Z,28.60
2023-05-17T21:50:38.167Z,28.60
2023-05-17T21:53:07.431Z,28.50
2023-05-17T21:56:00.680Z,28.50
2023-05-17T21:58:33.161Z,28.50
2023-05-17T22:01:04.581Z,28.50
2023-05-17T22:03:34.102Z,28.50
2023-05-17T22:06:07.574Z,28.50
2023-05-17T22:08:38.102Z,28.40
2023-05-17T22:11:09.597Z,28.40
2023-05-17T22:13:39.564Z,28.40
2023-05-17T22:16:12.061Z,28.30
2023-05-17T22:18:41.458Z,28.30
2023-05-17T22:21:15.412Z,28.20
2023-05-17T22:23:47.959Z,28.20
2023-05-17T22:26:22.812Z,28.20
2023-05-17T22:28:58.554Z,28.20
2023-05-17T22:31:29.026Z,28.10
2023-05-17T22:34:00.751Z,28.10
2023-05-17T22:36:33.173Z,28.10
2023-05-17T22:39:03.813Z,28.10
2023-05-17T22:41:34.514Z,28.10
2023-05-17T22:44:07.777Z,28.00
2023-05-17T22:46:43.055Z,28.00
2023-05-17T22:49:14.282Z,28.00
2023-05-17T22:51:43.548Z,27.90
2023-05-17T22:54:12.737Z,27.90
2023-05-17T22:56:42.009Z,27.90
2023-05-17T22:59:11.632Z,27.90
2023-05-17T23:01:40.920Z,27.80
2023-05-17T23:04:10.283Z,27.80
2023-05-17T23:06:39.602Z,27.90
2023-05-17T23:09:08.812Z,27.90
2023-05-17T23:11:38.247Z,27.90
2023-05-17T23:14:07.994Z,27.90
2023-05-17T23:16:38.294Z,27.90
2023-05-17T23:19:07.472Z,27.90
2023-05-17T23:21:37.060Z,27.90
2023-05-17T23:24:07.617Z,27.90
2023-05-17T23:26:37.210Z,27.90
2023-05-17T23:29:06.417Z,27.90
2023-05-17T23:31:35.739Z,27.90
2023-05-17T23:34:05.059Z,27.90
2023-05-17T23:36:34.425Z,27.90
2023-05-17T23:39:03.902Z,27.90
2023-05-17T23:41:33.156Z,28.00
2023-05-17T23:44:02.556Z,28.00
2023-05-17T23:46:31.891Z,28.00
2023-05-17T23:49:05.889Z,28.00
2023-05-17T23:51:35.816Z,28.10
2023-05-17T23:54:05.252Z,28.10
2023-05-17T23:56:34.560Z,28.10
2023-05-17T23:59:03.868Z,28.10
